Saint Marys, Indiana
Current Conditions -  °F | °C
As of 10:54 AM on Wednesday 22 Oct 2014 (Local Time) from KSBN Reporting Station
Clear Clear  
Wind Chill:   Ceiling: Unl
Heat Index:   Visibility: 10mi
Dew Point:   Wind: 3mph
Humidity: 71%   Direction: NA
Pressure: 30.38"   Gusts: NA
Location:  41.7197°N, 86.2504°W
Report Text: KSBN 221454Z VRB03KT 10SM CLR 08/03 A3038 RMK AO2 SLP293 T00780028 53014
Loading
Personal Weather Stations






























Interactive Weather Map
Tropical Storm Tracking
New forecast layout! Learn more

10-Day Weather Forecast

Advertisements
Track Severe Weather on mobile